WetterOnline ( https://www.wetteronline.de )

Wetter aktuell Mühlhausen

Aktuelles Wetter: Bamberg (243m)

6-stündlich | Neueste Meldungen
Ortszeit Temperatur Wetter
Sa, 29.01. 7:00 3.0° C bedeckt
Sa, 29.01. 1:00 2.9° C bedeckt
Fr, 28.01. 19:00 3.9° C bewölkt
Fr, 28.01. 13:00 4.7° C bewölkt
Fr, 28.01. 7:00 3.2° C bedeckt
Fr, 28.01. 1:00 3.1° C bedeckt
Do, 27.01. 19:00 1.6° C bedeckt
Do, 27.01. 13:00 -0.2° C bedeckt
Ortszeit Temperatur Wetter
Sa, 29.01. 12:10 3.2° C bedeckt
Sa, 29.01. 12:00 3.0° C bedeckt
Sa, 29.01. 11:50 3.0° C bedeckt
Sa, 29.01. 11:40 2.9° C bedeckt
Sa, 29.01. 11:30 2.8° C bedeckt
Sa, 29.01. 11:20 2.8° C bedeckt
Sa, 29.01. 11:00 2.6° C bedeckt
Sa, 29.01. 10:30 2.8° C Sprühregen
Sa, 29.01. 10:00 2.9° C bedeckt
Sa, 29.01. 9:30 3.2° C bedeckt
Ortszeit Relative Feuchte Sichtweite
Sa, 29.01. 7:00 82% 24 km
Sa, 29.01. 1:00 82% 23 km
Fr, 28.01. 19:00 68% 35 km
Fr, 28.01. 13:00 61% 45 km
Fr, 28.01. 7:00 79% 40 km
Fr, 28.01. 1:00 87% 35 km
Do, 27.01. 19:00 87% 15 km
Do, 27.01. 13:00 86% 13 km
Ortszeit Relative Feuchte Sichtweite
Sa, 29.01. 12:10 89% -
Sa, 29.01. 12:00 90% 12 km
Sa, 29.01. 11:50 90% -
Sa, 29.01. 11:40 89% -
Sa, 29.01. 11:30 89% 12 km
Sa, 29.01. 11:20 89% -
Sa, 29.01. 11:00 90% 7 km
Sa, 29.01. 10:30 89% 8 km
Sa, 29.01. 10:00 87% 11 km
Sa, 29.01. 9:30 83% 20 km
Ortszeit Niederschlagsmenge Niederschlagsart
Sa, 29.01. 7:00 0.0 l/m2 in 12 Std. -
Sa, 29.01. 1:00 0.0 l/m2 in 6 Std. -
Fr, 28.01. 19:00 0.1 l/m2 in 12 Std. -
Fr, 28.01. 13:00 0.1 l/m2 in 6 Std. Sprühregen
Fr, 28.01. 7:00 0.5 l/m2 in 12 Std. Regen
Fr, 28.01. 1:00 0.1 l/m2 in 6 Std. Regen
Do, 27.01. 19:00 0.1 l/m2 in 12 Std. Regen
Do, 27.01. 13:00 0.0 l/m2 in 6 Std. -
Ortszeit Niederschlagsmenge Niederschlagsart
Sa, 29.01. 12:10 keine Meldung -
Sa, 29.01. 12:00 0.1 l/m2 in 1 Std. Sprühregen
Sa, 29.01. 11:50 keine Meldung -
Sa, 29.01. 11:40 keine Meldung -
Sa, 29.01. 11:30 0.1 l/m2 in 1 Std. Schnee
Sa, 29.01. 11:20 keine Meldung -
Sa, 29.01. 11:00 0.1 l/m2 in 1 Std. Sprühregen
Sa, 29.01. 10:30 0.1 l/m2 in 1 Std. -
Sa, 29.01. 10:00 0.1 l/m2 in 1 Std. Regen
Sa, 29.01. 9:30 0.1 l/m2 in 1 Std. Schneeregen
Ortszeit Stärke Spitze Richtung
km/h Bft. km/h Grad Sektor
Sa, 29.01. 7:00 9 2 22 220° SW
Sa, 29.01. 1:00 9 2 17 220° SW
Fr, 28.01. 19:00 6 1 31 250° W
Fr, 28.01. 13:00 14 3 43 290° W
Fr, 28.01. 7:00 13 3 33 260° W
Fr, 28.01. 1:00 11 2 36 250° W
Do, 27.01. 19:00 13 3 26 240° SW
Do, 27.01. 13:00 11 2 29 180° S
Ortszeit Stärke Spitze Richtung
km/h Bft. km/h Grad Sektor
Sa, 29.01. 12:10 9 2 - 220° SW
Sa, 29.01. 12:00 7 2 25 210° SW
Sa, 29.01. 11:50 7 2 - 210° SW
Sa, 29.01. 11:40 9 2 - 220° SW
Sa, 29.01. 11:30 11 2 25 220° SW
Sa, 29.01. 11:20 11 2 - 220° SW
Sa, 29.01. 11:00 13 3 19 210° SW
Sa, 29.01. 10:30 9 2 19 210° SW
Sa, 29.01. 10:00 9 2 24 220° SW
Sa, 29.01. 9:30 11 2 18 220° SW
Ortszeit Untergrenze Bedeckung Gattung
total tief tief mittel hoch
Sa, 29.01. 7:00 390 m 8/8 8/8 - - -
Sa, 29.01. 1:00 960 m 8/8 8/8 - - -
Fr, 28.01. 19:00 1380 m 8/8 7/8 - - -
Fr, 28.01. 13:00 1350 m 7/8 7/8 - - -
Fr, 28.01. 7:00 1140 m 8/8 8/8 - - -
Fr, 28.01. 1:00 480 m 8/8 8/8 - - -
Do, 27.01. 19:00 270 m 8/8 8/8 - - -
Do, 27.01. 13:00 270 m 8/8 8/8 - - -
Ortszeit Bedeckungsgrad in Achtel und Wolkenuntergrenze
Sa, 29.01. 12:10 8
Sa, 29.01. 12:00 8(240m)
Sa, 29.01. 11:50 8(240m)
Sa, 29.01. 11:40 8
Sa, 29.01. 11:30 8(240m)
Sa, 29.01. 11:20 8(240m)
Sa, 29.01. 11:00 8(240m)
Sa, 29.01. 10:30 8(270m)
Sa, 29.01. 10:00 8(300m)
Sa, 29.01. 9:30 8(360m)
Ortszeit Luftdruck NN (hPa) Tendenz (hPa in 3 Std.)
Sa, 29.01. 7:00 1030 - 1,7
Sa, 29.01. 1:00 1034 - 1,3
Fr, 28.01. 19:00 1034 + 1,7
Fr, 28.01. 13:00 1033 + 1,2
Fr, 28.01. 7:00 1029 + 2,3
Fr, 28.01. 1:00 1026 + 1,5
Do, 27.01. 19:00 1025 - 1,0
Do, 27.01. 13:00 1027 - 1,5
Ortszeit Luftdruck NN (hPa) Tendenz (hPa in 3 Std.)
Sa, 29.01. 12:10 1028 keine Meldung
Sa, 29.01. 12:00 1028 - 0,9
Sa, 29.01. 11:50 1028 keine Meldung
Sa, 29.01. 11:40 1028 keine Meldung
Sa, 29.01. 11:30 1028 - 0,9
Sa, 29.01. 11:20 1028 keine Meldung
Sa, 29.01. 11:00 1028 - 0,8
Sa, 29.01. 10:30 1029 - 1,0
Sa, 29.01. 10:00 1028 - 1,1
Sa, 29.01. 9:30 1029 - 1,1
Ortszeit Schneehöhe (cm)
Sa, 29.01. 7:00 0
Sa, 29.01. 1:00 0
Fr, 28.01. 19:00 0
Fr, 28.01. 13:00 0
Fr, 28.01. 7:00 0
Fr, 28.01. 1:00 0
Do, 27.01. 19:00 0
Do, 27.01. 13:00 0
Ortszeit Schneehöhe (cm)
Sa, 29.01. 12:10 0
Sa, 29.01. 12:00 0
Sa, 29.01. 11:50 0
Sa, 29.01. 11:40 0
Sa, 29.01. 11:30 0
Sa, 29.01. 11:20 0
Sa, 29.01. 11:00 0
Sa, 29.01. 10:30 0
Sa, 29.01. 10:00 0
Sa, 29.01. 9:30 0
Link zu dieser Seite / Seite empfehlen

Das Wetter in ...